createdAt,value
2019-01-23T00:01:15.713Z,-6.73
2019-01-23T00:03:23.636Z,-6.71
2019-01-23T00:05:30.799Z,-6.70
2019-01-23T00:07:37.222Z,-6.66
2019-01-23T00:09:45.064Z,-6.63
2019-01-23T00:11:51.531Z,-6.62
2019-01-23T00:13:59.639Z,-6.61
2019-01-23T00:16:06.231Z,-6.60
2019-01-23T00:18:12.251Z,-6.60
2019-01-23T00:20:20.291Z,-6.58
2019-01-23T00:22:26.610Z,-6.57
2019-01-23T00:24:32.890Z,-6.54
2019-01-23T00:26:39.249Z,-6.53
2019-01-23T00:28:47.061Z,-6.53
2019-01-23T00:30:54.851Z,-6.52
2019-01-23T00:33:01.296Z,-6.50
2019-01-23T00:35:09.092Z,-6.47
2019-01-23T00:37:15.253Z,-6.49
2019-01-23T00:39:21.623Z,-6.49
2019-01-23T00:41:29.423Z,-6.45
2019-01-23T00:43:35.905Z,-6.45
2019-01-23T00:45:43.071Z,-6.42
2019-01-23T00:47:49.629Z,-6.41
2019-01-23T00:49:55.947Z,-6.40
2019-01-23T00:52:04.189Z,-6.40
2019-01-23T00:54:12.497Z,-6.37
2019-01-23T00:56:20.400Z,-6.39
2019-01-23T00:58:27.780Z,-6.41
2019-01-23T01:00:33.880Z,-6.43
2019-01-23T01:02:41.766Z,-6.43
2019-01-23T01:04:47.898Z,-6.41
2019-01-23T01:06:54.154Z,-6.43
2019-01-23T01:09:02.156Z,-6.37
2019-01-23T01:11:09.946Z,-6.39
2019-01-23T01:13:16.218Z,-6.36
2019-01-23T01:15:22.725Z,-6.35
2019-01-23T01:17:29.932Z,-6.31
2019-01-23T01:19:36.277Z,-6.34
2019-01-23T01:21:42.374Z,-6.34
2019-01-23T01:23:48.732Z,-6.32
2019-01-23T01:25:55.524Z,-6.32
2019-01-23T01:28:02.002Z,-6.31
2019-01-23T01:30:12.462Z,-6.31
2019-01-23T01:32:18.913Z,-6.31
2019-01-23T01:34:25.281Z,-6.29
2019-01-23T01:36:31.963Z,-6.28
2019-01-23T01:38:39.521Z,-6.27
2019-01-23T01:40:46.501Z,-6.23
2019-01-23T01:42:54.508Z,-6.19
2019-01-23T01:45:01.865Z,-6.21
2019-01-23T01:47:08.565Z,-6.27
2019-01-23T01:49:15.224Z,-6.28
2019-01-23T01:51:21.529Z,-6.29
2019-01-23T01:53:29.368Z,-6.29
2019-01-23T01:55:35.757Z,-6.31
2019-01-23T01:57:44.040Z,-6.28
2019-01-23T01:59:51.651Z,-6.30
2019-01-23T02:01:58.003Z,-6.30
2019-01-23T02:04:04.840Z,-6.30
2019-01-23T02:06:10.930Z,-6.31
2019-01-23T02:08:18.428Z,-6.32
2019-01-23T02:10:24.678Z,-6.35
2019-01-23T02:12:32.378Z,-6.37
2019-01-23T02:14:40.067Z,-6.41
2019-01-23T02:16:46.227Z,-6.45
2019-01-23T02:18:52.908Z,-6.47
2019-01-23T02:21:01.427Z,-6.48
2019-01-23T02:23:07.699Z,-6.52
2019-01-23T02:25:13.941Z,-6.53
2019-01-23T02:27:20.301Z,-6.55
2019-01-23T02:29:29.511Z,-6.60
2019-01-23T02:31:35.930Z,-6.63
2019-01-23T02:33:42.354Z,-6.65
2019-01-23T02:35:48.812Z,-6.67
2019-01-23T02:37:55.182Z,-6.68
2019-01-23T02:40:02.270Z,-6.70
2019-01-23T02:42:08.841Z,-6.73
2019-01-23T02:44:15.095Z,-6.76
2019-01-23T02:46:23.079Z,-6.78
2019-01-23T02:48:31.099Z,-6.78
2019-01-23T02:50:39.288Z,-6.79
2019-01-23T02:52:45.709Z,-6.82
2019-01-23T02:54:51.919Z,-6.86
2019-01-23T02:56:58.278Z,-6.87
2019-01-23T02:59:04.639Z,-6.87
2019-01-23T03:01:11.000Z,-6.88
2019-01-23T03:03:18.284Z,-6.87
2019-01-23T03:05:26.485Z,-6.87
2019-01-23T03:07:32.763Z,-6.80
2019-01-23T03:09:40.776Z,-6.81
2019-01-23T03:11:50.195Z,-6.83
2019-01-23T03:13:56.405Z,-6.85
2019-01-23T03:16:02.625Z,-6.83
2019-01-23T03:18:08.773Z,-6.83
2019-01-23T03:20:18.353Z,-6.83
2019-01-23T03:22:25.169Z,-6.81
2019-01-23T03:24:31.548Z,-6.77
2019-01-23T03:26:38.317Z,-6.74
2019-01-23T03:28:44.757Z,-6.69
2019-01-23T03:30:53.910Z,-6.66
2019-01-23T03:33:00.370Z,-6.65
2019-01-23T03:35:09.828Z,-6.62
2019-01-23T03:37:16.734Z,-6.63
2019-01-23T03:39:22.931Z,-6.61
2019-01-23T03:41:29.913Z,-6.59
2019-01-23T03:43:37.747Z,-6.60
2019-01-23T03:45:44.281Z,-6.60
2019-01-23T03:47:50.437Z,-6.62
2019-01-23T03:49:57.254Z,-6.65
2019-01-23T03:52:03.853Z,-6.67
2019-01-23T03:54:10.452Z,-6.67
2019-01-23T03:56:17.132Z,-6.68
2019-01-23T03:58:23.932Z,-6.67
2019-01-23T04:00:32.332Z,-6.67
2019-01-23T04:02:38.971Z,-6.66
2019-01-23T04:04:45.854Z,-6.65
2019-01-23T04:06:52.652Z,-6.66
2019-01-23T04:09:00.096Z,-6.65
2019-01-23T04:11:06.677Z,-6.67
2019-01-23T04:13:14.540Z,-6.69
2019-01-23T04:15:22.344Z,-6.71
2019-01-23T04:17:29.676Z,-6.72
2019-01-23T04:19:36.157Z,-6.74
2019-01-23T04:21:43.001Z,-6.75
2019-01-23T04:23:49.321Z,-6.71
2019-01-23T04:25:56.092Z,-6.66
2019-01-23T04:28:02.317Z,-6.67
2019-01-23T04:30:18.367Z,-6.66
2019-01-23T04:32:24.417Z,-6.67
2019-01-23T04:34:30.767Z,-6.69
2019-01-23T04:36:37.158Z,-6.72
2019-01-23T04:38:43.620Z,-6.77
2019-01-23T04:40:49.869Z,-6.81
2019-01-23T04:42:56.144Z,-6.84
2019-01-23T04:45:06.595Z,-6.89
2019-01-23T04:47:12.955Z,-6.94
2019-01-23T04:49:19.116Z,-6.97
2019-01-23T04:51:32.954Z,-6.98
2019-01-23T04:53:42.185Z,-6.95
2019-01-23T04:55:48.858Z,-6.97
2019-01-23T04:57:55.326Z,-7.00
2019-01-23T05:00:01.467Z,-7.01
2019-01-23T05:02:07.885Z,-7.01
2019-01-23T05:04:14.077Z,-7.00
2019-01-23T05:06:22.100Z,-6.99
2019-01-23T05:08:28.350Z,-6.96
2019-01-23T05:10:34.926Z,-6.97
2019-01-23T05:12:41.197Z,-6.98
2019-01-23T05:14:48.679Z,-6.95
2019-01-23T05:16:55.302Z,-6.94
2019-01-23T05:19:03.668Z,-6.94
2019-01-23T05:21:11.657Z,-6.92
2019-01-23T05:23:18.113Z,-6.93
2019-01-23T05:25:24.471Z,-6.88
2019-01-23T05:27:31.039Z,-6.86
2019-01-23T05:29:37.600Z,-6.83
2019-01-23T05:31:43.763Z,-6.83
2019-01-23T05:33:51.282Z,-6.79
2019-01-23T05:35:57.664Z,-6.78
2019-01-23T05:38:03.668Z,-6.75
2019-01-23T05:40:10.678Z,-6.76
2019-01-23T05:42:17.016Z,-6.75
2019-01-23T05:44:23.175Z,-6.74
2019-01-23T05:46:59.749Z,-6.75
2019-01-23T05:49:07.657Z,-6.80
2019-01-23T05:51:16.571Z,-6.80
2019-01-23T05:53:23.793Z,-6.76
2019-01-23T05:55:30.942Z,-6.73
2019-01-23T05:57:37.304Z,-6.69
2019-01-23T05:59:46.382Z,-6.68
2019-01-23T06:01:53.083Z,-6.66
2019-01-23T06:04:02.582Z,-6.66
2019-01-23T06:06:09.106Z,-6.66
2019-01-23T06:08:15.525Z,-6.65
2019-01-23T06:10:21.721Z,-6.63
2019-01-23T06:12:29.403Z,-6.64
2019-01-23T06:14:35.795Z,-6.66
2019-01-23T06:16:50.123Z,-6.66
2019-01-23T06:18:58.924Z,-6.63
2019-01-23T06:21:08.063Z,-6.63
2019-01-23T06:23:14.383Z,-6.64
2019-01-23T06:25:20.708Z,-6.65
2019-01-23T06:27:28.471Z,-6.68
2019-01-23T06:29:36.276Z,-6.71
2019-01-23T06:31:42.446Z,-6.72
2019-01-23T06:33:48.843Z,-6.73
2019-01-23T06:35:56.653Z,-6.76
2019-01-23T06:38:02.866Z,-6.79
2019-01-23T06:40:12.963Z,-6.78
2019-01-23T06:42:19.391Z,-6.79
2019-01-23T06:44:26.378Z,-6.80
2019-01-23T06:46:32.641Z,-6.82
2019-01-23T06:48:42.147Z,-6.81
2019-01-23T06:50:49.483Z,-6.82
2019-01-23T06:52:55.588Z,-6.80
2019-01-23T06:55:02.283Z,-6.81
2019-01-23T06:57:08.337Z,-6.81
2019-01-23T06:59:14.369Z,-6.80
2019-01-23T07:01:20.430Z,-6.79
2019-01-23T07:03:26.857Z,-6.77
2019-01-23T07:05:33.378Z,-6.76
2019-01-23T07:07:39.516Z,-6.73
2019-01-23T07:09:45.683Z,-6.73
2019-01-23T07:11:54.799Z,-6.73
2019-01-23T07:14:01.057Z,-6.72
2019-01-23T07:16:07.356Z,-6.54
2019-01-23T07:18:14.630Z,-6.54
2019-01-23T07:20:23.729Z,-6.55
2019-01-23T07:22:31.880Z,-6.58
2019-01-23T07:24:38.101Z,-6.58
2019-01-23T07:26:47.013Z,-6.55
2019-01-23T07:28:53.484Z,-6.57
2019-01-23T07:30:59.754Z,-6.55
2019-01-23T07:33:09.584Z,-6.54
2019-01-23T07:35:18.394Z,-6.51
2019-01-23T07:37:26.221Z,-6.47
2019-01-23T07:39:32.362Z,-6.45
2019-01-23T07:41:38.463Z,-6.43
2019-01-23T07:43:44.509Z,-6.40
2019-01-23T07:45:51.301Z,-6.37
2019-01-23T07:47:57.315Z,-6.33
2019-01-23T07:50:03.436Z,-6.30
2019-01-23T07:52:09.501Z,-6.28
2019-01-23T07:54:15.565Z,-6.21
2019-01-23T07:56:21.723Z,-6.19
2019-01-23T07:58:28.074Z,-6.17
2019-01-23T08:00:34.394Z,-6.12
2019-01-23T08:02:42.953Z,-6.08
2019-01-23T08:04:49.158Z,-6.03
2019-01-23T08:06:55.173Z,-5.99
2019-01-23T08:09:04.153Z,-5.96
2019-01-23T08:11:11.997Z,-5.93
2019-01-23T08:13:18.290Z,-5.88
2019-01-23T08:15:31.269Z,-5.84
2019-01-23T08:17:37.428Z,-5.82
2019-01-23T08:19:43.881Z,-5.81
2019-01-23T08:21:50.414Z,-5.83
2019-01-23T08:23:57.530Z,-5.83
2019-01-23T08:26:03.846Z,-5.82
2019-01-23T08:28:11.803Z,-5.81
2019-01-23T08:30:22.250Z,-5.77
2019-01-23T08:32:28.511Z,-5.70
2019-01-23T08:34:34.678Z,-5.59
2019-01-23T08:36:41.099Z,-5.45
2019-01-23T08:38:47.402Z,-5.27
2019-01-23T08:40:53.813Z,-5.08
2019-01-23T08:43:00.218Z,-4.99
2019-01-23T08:45:09.803Z,-4.85
2019-01-23T08:47:16.345Z,-4.77
2019-01-23T08:49:22.813Z,-4.64
2019-01-23T08:51:29.038Z,-4.52
2019-01-23T08:53:35.322Z,-4.45
2019-01-23T08:55:41.583Z,-4.42
2019-01-23T08:57:47.954Z,-4.35
2019-01-23T08:59:55.476Z,-4.29
2019-01-23T09:02:01.713Z,-4.21
2019-01-23T09:04:08.094Z,-4.14
2019-01-23T09:06:14.744Z,-4.01
2019-01-23T09:08:21.975Z,-4.02
2019-01-23T09:10:30.271Z,-4.03
2019-01-23T09:12:36.752Z,-4.03
2019-01-23T09:14:42.852Z,-4.00
2019-01-23T09:16:48.937Z,-3.95
2019-01-23T09:18:57.961Z,-3.86
2019-01-23T09:21:05.503Z,-3.85
2019-01-23T09:23:11.768Z,-3.71
2019-01-23T09:25:24.690Z,-3.63
2019-01-23T09:27:31.968Z,-3.64
2019-01-23T09:29:41.309Z,-3.57
2019-01-23T09:32:04.578Z,-3.55
2019-01-23T09:34:18.389Z,-3.58
2019-01-23T09:36:33.998Z,-3.57
2019-01-23T09:39:11.986Z,-3.53
2019-01-23T09:41:31.627Z,-3.50
2019-01-23T09:43:50.412Z,-3.58
2019-01-23T09:46:27.900Z,-3.64
2019-01-23T09:49:00.091Z,-3.59
2019-01-23T09:51:47.582Z,-3.59
2019-01-23T09:54:02.772Z,-3.54
2019-01-23T09:56:13.068Z,-3.41
2019-01-23T09:58:31.644Z,-3.31
2019-01-23T10:00:42.512Z,-3.26
2019-01-23T10:02:51.658Z,-3.37
2019-01-23T10:05:01.079Z,-3.25
2019-01-23T10:07:10.655Z,-3.29
2019-01-23T10:09:16.896Z,-3.27
2019-01-23T10:11:25.651Z,-3.29
2019-01-23T10:13:31.692Z,-3.33
2019-01-23T10:15:46.195Z,-3.30
2019-01-23T10:17:55.755Z,-3.22
2019-01-23T10:20:02.024Z,-3.18
2019-01-23T10:22:08.617Z,-3.08
2019-01-23T10:24:14.920Z,-3.03
2019-01-23T10:26:21.551Z,-2.90
2019-01-23T10:28:29.207Z,-2.88
2019-01-23T10:30:36.373Z,-2.87
2019-01-23T10:32:42.654Z,-2.82
2019-01-23T10:34:49.232Z,-2.72
2019-01-23T10:36:57.483Z,-2.66
2019-01-23T10:39:06.573Z,-2.55
2019-01-23T10:41:12.923Z,-2.57
2019-01-23T10:43:19.167Z,-2.60
2019-01-23T10:45:28.778Z,-2.53
2019-01-23T10:47:36.263Z,-2.52
2019-01-23T10:49:43.962Z,-2.53
2019-01-23T10:51:50.539Z,-2.49
2019-01-23T10:53:57.809Z,-2.39
2019-01-23T10:56:04.205Z,-2.33
2019-01-23T10:58:11.039Z,-2.30
2019-01-23T11:00:23.347Z,-2.25
2019-01-23T11:02:29.684Z,-2.38
2019-01-23T11:04:35.951Z,-2.36
2019-01-23T11:06:42.111Z,-2.26
2019-01-23T11:08:50.264Z,-2.34
2019-01-23T11:10:56.604Z,-2.35
2019-01-23T11:13:04.021Z,-2.26
2019-01-23T11:15:11.433Z,-2.21
2019-01-23T11:17:18.236Z,-2.09
2019-01-23T11:19:24.572Z,-2.12
2019-01-23T11:21:31.021Z,-2.13
2019-01-23T11:23:39.711Z,-2.15
2019-01-23T11:25:46.005Z,-2.09
2019-01-23T11:27:52.498Z,-2.04
2019-01-23T11:29:59.130Z,-1.90
2019-01-23T11:32:05.704Z,-2.02
2019-01-23T11:34:13.192Z,-1.96
2019-01-23T11:36:19.427Z,-1.89
2019-01-23T11:38:25.633Z,-1.80
2019-01-23T11:40:32.880Z,-1.79
2019-01-23T11:42:39.161Z,-1.69
2019-01-23T11:44:47.028Z,-1.86
2019-01-23T11:46:53.311Z,-1.84
2019-01-23T11:49:00.188Z,-1.96
2019-01-23T11:51:06.659Z,-2.01
2019-01-23T11:53:12.970Z,-1.99
2019-01-23T11:55:20.418Z,-1.93
2019-01-23T11:57:29.129Z,-1.97
2019-01-23T11:59:40.798Z,-1.94
2019-01-23T12:01:47.653Z,-1.99
2019-01-23T12:03:57.110Z,-2.01
2019-01-23T12:06:05.206Z,-1.92
2019-01-23T12:08:11.522Z,-1.94
2019-01-23T12:10:23.332Z,-1.92
2019-01-23T12:12:29.882Z,-1.92
2019-01-23T12:14:36.766Z,-1.88
2019-01-23T12:16:46.279Z,-2.00
2019-01-23T12:18:55.568Z,-2.12
2019-01-23T12:21:03.250Z,-2.21
2019-01-23T12:23:10.039Z,-2.28
2019-01-23T12:25:18.289Z,-2.32
2019-01-23T12:27:24.501Z,-2.39
2019-01-23T12:29:31.927Z,-2.41
2019-01-23T12:31:38.634Z,-2.41
2019-01-23T12:33:45.939Z,-2.45
2019-01-23T12:35:53.536Z,-2.49
2019-01-23T12:38:00.853Z,-2.54
2019-01-23T12:40:13.183Z,-2.59
2019-01-23T12:42:19.515Z,-2.61
2019-01-23T12:44:26.048Z,-2.62
2019-01-23T12:46:32.375Z,-2.62
2019-01-23T12:48:38.675Z,-2.62
2019-01-23T12:50:45.138Z,-2.61
2019-01-23T12:52:54.494Z,-2.62
2019-01-23T12:55:01.188Z,-2.66
2019-01-23T12:57:07.808Z,-2.63
2019-01-23T12:59:14.436Z,-2.65
2019-01-23T13:01:20.952Z,-2.70
2019-01-23T13:03:30.687Z,-2.72
2019-01-23T13:05:37.448Z,-2.72
2019-01-23T13:07:45.315Z,-2.70
2019-01-23T13:09:52.977Z,-2.63
2019-01-23T13:12:01.924Z,-2.54
2019-01-23T13:14:08.143Z,-2.49
2019-01-23T13:16:14.717Z,-2.43
2019-01-23T13:18:21.168Z,-2.37
2019-01-23T13:20:28.723Z,-2.32
2019-01-23T13:22:37.586Z,-2.29
2019-01-23T13:24:47.173Z,-2.30
2019-01-23T13:26:53.894Z,-2.39
2019-01-23T13:29:00.163Z,-2.47
2019-01-23T13:31:06.870Z,-2.56
2019-01-23T13:33:12.984Z,-2.65
2019-01-23T13:35:26.614Z,-2.69
2019-01-23T13:37:33.550Z,-2.74
2019-01-23T13:39:40.940Z,-2.76
2019-01-23T13:41:48.647Z,-2.73
2019-01-23T13:43:55.108Z,-2.76
2019-01-23T13:46:01.478Z,-2.76
2019-01-23T13:48:10.098Z,-2.76
2019-01-23T13:50:17.838Z,-2.74
2019-01-23T13:52:26.628Z,-2.68
2019-01-23T13:54:33.077Z,-2.60
2019-01-23T13:56:39.452Z,-2.54
2019-01-23T13:58:49.008Z,-2.54
2019-01-23T14:00:55.347Z,-2.52
2019-01-23T14:03:06.475Z,-2.52
2019-01-23T14:05:14.877Z,-2.55
2019-01-23T14:07:32.060Z,-2.64
2019-01-23T14:09:38.935Z,-2.69
2019-01-23T14:11:46.649Z,-2.74
2019-01-23T14:13:52.858Z,-2.80
2019-01-23T14:15:59.189Z,-2.83
2019-01-23T14:18:06.526Z,-2.88
2019-01-23T14:20:16.362Z,-2.92
2019-01-23T14:22:22.844Z,-2.96
2019-01-23T14:24:29.127Z,-2.98
2019-01-23T14:26:37.538Z,-3.02
2019-01-23T14:28:43.921Z,-3.05
2019-01-23T14:30:50.433Z,-3.07
2019-01-23T14:32:57.226Z,-3.11
2019-01-23T14:35:03.477Z,-3.11
2019-01-23T14:37:11.490Z,-3.16
2019-01-23T14:39:17.831Z,-3.19
2019-01-23T14:41:27.176Z,-3.25
2019-01-23T14:43:34.155Z,-3.30
2019-01-23T14:45:40.826Z,-3.34
2019-01-23T14:47:47.219Z,-3.37
2019-01-23T14:49:54.956Z,-3.38
2019-01-23T14:52:02.628Z,-3.39
2019-01-23T14:54:09.014Z,-3.43
2019-01-23T14:56:15.727Z,-3.46
2019-01-23T14:58:23.835Z,-3.45
2019-01-23T15:00:34.495Z,-3.46
2019-01-23T15:02:42.051Z,-3.49
2019-01-23T15:04:50.574Z,-3.51
2019-01-23T15:06:57.488Z,-3.53
2019-01-23T15:09:04.248Z,-3.55
2019-01-23T15:11:10.672Z,-3.55
2019-01-23T15:13:17.814Z,-3.52
2019-01-23T15:15:27.895Z,-3.51
2019-01-23T15:17:35.905Z,-3.50
2019-01-23T15:19:43.864Z,-3.48
2019-01-23T15:21:50.182Z,-3.47
2019-01-23T15:23:57.922Z,-3.47
2019-01-23T15:26:06.097Z,-3.48
2019-01-23T15:28:12.425Z,-3.46
2019-01-23T15:30:23.834Z,-3.48
2019-01-23T15:32:30.167Z,-3.53
2019-01-23T15:34:36.768Z,-3.57
2019-01-23T15:36:43.988Z,-3.61
2019-01-23T15:38:50.395Z,-3.69
2019-01-23T15:40:56.604Z,-3.77
2019-01-23T15:43:05.722Z,-3.84
2019-01-23T15:45:12.219Z,-3.90
2019-01-23T15:47:19.749Z,-3.95
2019-01-23T15:49:26.988Z,-3.95
2019-01-23T15:51:33.918Z,-4.00
2019-01-23T15:53:40.258Z,-4.04
2019-01-23T15:55:46.791Z,-4.06
2019-01-23T15:57:54.617Z,-4.12
2019-01-23T16:00:01.650Z,-4.13
2019-01-23T16:02:09.655Z,-4.16
2019-01-23T16:04:16.722Z,-4.19
2019-01-23T16:06:22.842Z,-4.23
2019-01-23T16:08:31.608Z,-4.25
2019-01-23T16:10:38.821Z,-4.29
2019-01-23T16:12:47.148Z,-4.25
2019-01-23T16:14:53.869Z,-4.21
2019-01-23T16:17:00.441Z,-4.16
2019-01-23T16:19:06.889Z,-4.08
2019-01-23T16:21:13.601Z,-3.99
2019-01-23T16:23:20.015Z,-3.89
2019-01-23T16:25:27.672Z,-3.74
2019-01-23T16:27:36.062Z,-3.62
2019-01-23T16:29:42.692Z,-3.53
2019-01-23T16:31:48.902Z,-3.48
2019-01-23T16:33:55.590Z,-3.42
2019-01-23T16:36:02.305Z,-3.39
2019-01-23T16:38:09.402Z,-3.35
2019-01-23T16:40:15.900Z,-3.33
2019-01-23T16:42:23.759Z,-3.31
2019-01-23T16:44:30.418Z,-3.30
2019-01-23T16:46:37.432Z,-3.29
2019-01-23T16:48:43.905Z,-3.26
2019-01-23T16:50:50.172Z,-3.24
2019-01-23T16:52:56.730Z,-3.23
2019-01-23T16:55:03.144Z,-3.23
2019-01-23T16:57:09.552Z,-3.22
2019-01-23T16:59:17.111Z,-3.22
2019-01-23T17:01:23.885Z,-3.21
2019-01-23T17:03:30.620Z,-3.21
2019-01-23T17:05:37.089Z,-3.21
2019-01-23T17:07:44.032Z,-3.20
2019-01-23T17:09:50.802Z,-3.23
2019-01-23T17:11:57.393Z,-3.22
2019-01-23T17:14:04.019Z,-3.22
2019-01-23T17:16:10.522Z,-3.20
2019-01-23T17:18:17.400Z,-3.20
2019-01-23T17:20:40.081Z,-3.19
2019-01-23T17:22:46.692Z,-3.16
2019-01-23T17:24:53.272Z,-3.16
2019-01-23T17:26:59.853Z,-3.16
2019-01-23T17:29:06.512Z,-3.17
2019-01-23T17:31:13.052Z,-3.18
2019-01-23T17:33:21.828Z,-3.20
2019-01-23T17:35:28.381Z,-3.19
2019-01-23T17:37:35.069Z,-3.20
2019-01-23T17:39:41.959Z,-3.21
2019-01-23T17:41:49.089Z,-3.21
2019-01-23T17:43:55.812Z,-3.20
2019-01-23T17:46:02.493Z,-3.20
2019-01-23T17:48:11.952Z,-3.23
2019-01-23T17:50:21.550Z,-3.25
2019-01-23T17:52:29.242Z,-3.26
2019-01-23T17:54:36.575Z,-3.25
2019-01-23T17:56:43.485Z,-3.25
2019-01-23T17:58:52.134Z,-3.25
2019-01-23T18:01:00.011Z,-3.25
2019-01-23T18:03:06.963Z,-3.23
2019-01-23T18:05:14.036Z,-3.21
2019-01-23T18:07:20.943Z,-3.18
2019-01-23T18:09:28.031Z,-3.16
2019-01-23T18:11:35.411Z,-3.13
2019-01-23T18:13:43.147Z,-3.12
2019-01-23T18:15:49.973Z,-3.11
2019-01-23T18:17:56.803Z,-3.10
2019-01-23T18:20:04.950Z,-3.13
2019-01-23T18:22:12.543Z,-3.12
2019-01-23T18:24:19.206Z,-3.11
2019-01-23T18:26:26.470Z,-3.14
2019-01-23T18:28:33.443Z,-3.12
2019-01-23T18:30:53.623Z,-3.12
2019-01-23T18:33:02.302Z,-3.12
2019-01-23T18:35:23.623Z,-3.15
2019-01-23T18:37:43.850Z,-3.22
2019-01-23T18:40:11.861Z,-3.32
2019-01-23T18:42:53.844Z,-3.45
2019-01-23T18:45:05.913Z,-3.56
2019-01-23T18:47:52.663Z,-3.70
2019-01-23T18:50:34.743Z,-3.81
2019-01-23T18:52:51.369Z,-3.88
2019-01-23T18:54:56.132Z,-3.98
2019-01-23T18:57:03.144Z,-4.04
2019-01-23T18:59:10.471Z,-4.05
2019-01-23T19:01:17.312Z,-4.12
2019-01-23T19:03:24.148Z,-4.19
2019-01-23T19:05:31.182Z,-4.28
2019-01-23T19:07:38.202Z,-4.34
2019-01-23T19:09:45.053Z,-4.41
2019-01-23T19:11:51.983Z,-4.48
2019-01-23T19:13:59.052Z,-4.52
2019-01-23T19:16:07.760Z,-4.58
2019-01-23T19:18:20.702Z,-4.60
2019-01-23T19:20:31.593Z,-4.65
2019-01-23T19:22:39.101Z,-4.69
2019-01-23T19:24:46.509Z,-4.70
2019-01-23T19:26:53.498Z,-4.74
2019-01-23T19:29:00.363Z,-4.76
2019-01-23T19:31:07.562Z,-4.80
2019-01-23T19:33:15.121Z,-4.82
2019-01-23T19:35:23.047Z,-4.87
2019-01-23T19:37:31.935Z,-4.93
2019-01-23T19:39:39.120Z,-4.97
2019-01-23T19:41:46.001Z,-4.99
2019-01-23T19:43:53.136Z,-5.03
2019-01-23T19:46:00.646Z,-5.11
2019-01-23T19:48:07.812Z,-5.15
2019-01-23T19:50:15.835Z,-5.18
2019-01-23T19:52:22.622Z,-5.23
2019-01-23T19:54:29.403Z,-5.26
2019-01-23T19:56:36.442Z,-5.32
2019-01-23T19:58:43.995Z,-5.35
2019-01-23T20:00:52.745Z,-5.37
2019-01-23T20:03:01.049Z,-5.42
2019-01-23T20:05:13.279Z,-5.47
2019-01-23T20:07:20.067Z,-5.49
2019-01-23T20:09:27.068Z,-5.54
2019-01-23T20:11:34.227Z,-5.60
2019-01-23T20:13:41.099Z,-5.65
2019-01-23T20:15:48.004Z,-5.64
2019-01-23T20:17:57.409Z,-5.70
2019-01-23T20:20:05.595Z,-5.69
2019-01-23T20:22:12.487Z,-5.70
2019-01-23T20:24:19.595Z,-5.72
2019-01-23T20:26:27.695Z,-5.76
2019-01-23T20:28:34.921Z,-5.81
2019-01-23T20:30:42.348Z,-5.87
2019-01-23T20:32:49.978Z,-5.92
2019-01-23T20:34:57.288Z,-5.95
2019-01-23T20:37:04.476Z,-5.96
2019-01-23T20:39:11.972Z,-5.98
2019-01-23T20:41:18.950Z,-5.99
2019-01-23T20:43:25.981Z,-5.99
2019-01-23T20:45:32.819Z,-5.99
2019-01-23T20:47:39.701Z,-6.01
2019-01-23T20:49:46.388Z,-6.05
2019-01-23T20:51:53.338Z,-6.09
2019-01-23T20:54:00.259Z,-6.12
2019-01-23T20:56:08.518Z,-6.12
2019-01-23T20:58:16.417Z,-6.14
2019-01-23T21:00:32.140Z,-6.18
2019-01-23T21:02:39.257Z,-6.21
2019-01-23T21:04:46.197Z,-6.26
2019-01-23T21:06:53.010Z,-6.28
2019-01-23T21:09:00.317Z,-6.32
2019-01-23T21:11:08.635Z,-6.35
2019-01-23T21:13:16.760Z,-6.38
2019-01-23T21:15:28.703Z,-6.31
2019-01-23T21:17:35.735Z,-6.30
2019-01-23T21:19:43.314Z,-6.31
2019-01-23T21:21:50.127Z,-6.32
2019-01-23T21:23:57.567Z,-6.34
2019-01-23T21:26:04.527Z,-6.36
2019-01-23T21:28:11.426Z,-6.40
2019-01-23T21:30:24.367Z,-6.41
2019-01-23T21:32:31.456Z,-6.42
2019-01-23T21:34:38.462Z,-6.45
2019-01-23T21:36:45.496Z,-6.44
2019-01-23T21:38:52.187Z,-6.44
2019-01-23T21:40:58.734Z,-6.42
2019-01-23T21:43:06.574Z,-6.43
2019-01-23T21:45:15.707Z,-6.47
2019-01-23T21:47:23.449Z,-6.49
2019-01-23T21:49:29.988Z,-6.49
2019-01-23T21:51:37.722Z,-6.48
2019-01-23T21:53:44.513Z,-6.48
2019-01-23T21:55:51.189Z,-6.49
2019-01-23T21:57:57.845Z,-6.51
2019-01-23T22:00:17.007Z,-6.54
2019-01-23T22:02:23.547Z,-6.55
2019-01-23T22:04:30.212Z,-6.56
2019-01-23T22:06:43.266Z,-6.58
2019-01-23T22:09:04.921Z,-6.61
2019-01-23T22:11:16.144Z,-6.64
2019-01-23T22:13:26.890Z,-6.62
2019-01-23T22:15:34.620Z,-6.66
2019-01-23T22:17:41.699Z,-6.63
2019-01-23T22:19:48.640Z,-6.63
2019-01-23T22:21:54.919Z,-6.62
2019-01-23T22:24:14.472Z,-6.64
2019-01-23T22:26:23.079Z,-6.69
2019-01-23T22:28:29.525Z,-6.74
2019-01-23T22:30:42.226Z,-6.80
2019-01-23T22:32:50.096Z,-6.87
2019-01-23T22:34:59.680Z,-6.90
2019-01-23T22:37:06.090Z,-6.91
2019-01-23T22:39:13.419Z,-6.93
2019-01-23T22:41:19.996Z,-6.96
2019-01-23T22:43:26.444Z,-7.00
2019-01-23T22:45:34.357Z,-7.04
2019-01-23T22:47:40.738Z,-7.03
2019-01-23T22:49:48.046Z,-7.07
2019-01-23T22:51:54.363Z,-7.10
2019-01-23T22:54:02.403Z,-7.13
2019-01-23T22:56:08.786Z,-7.18
2019-01-23T22:58:18.316Z,-7.20
2019-01-23T23:00:43.373Z,-7.19
2019-01-23T23:02:49.764Z,-7.19
2019-01-23T23:04:56.293Z,-7.23
2019-01-23T23:07:02.564Z,-7.28
2019-01-23T23:09:11.373Z,-7.32
2019-01-23T23:11:18.901Z,-7.34
2019-01-23T23:13:25.293Z,-7.37
2019-01-23T23:15:32.146Z,-7.36
2019-01-23T23:17:38.485Z,-7.37
2019-01-23T23:19:44.938Z,-7.36
2019-01-23T23:21:51.340Z,-7.40
2019-01-23T23:23:57.863Z,-7.42
2019-01-23T23:26:06.018Z,-7.42
2019-01-23T23:28:13.618Z,-7.45
2019-01-23T23:30:24.736Z,-7.46
2019-01-23T23:32:30.791Z,-7.45
2019-01-23T23:34:37.130Z,-7.46
2019-01-23T23:36:43.204Z,-7.47
2019-01-23T23:38:51.557Z,-7.49
2019-01-23T23:41:00.844Z,-7.49
2019-01-23T23:43:07.413Z,-7.47
2019-01-23T23:45:17.979Z,-7.46
2019-01-23T23:47:24.501Z,-7.45
2019-01-23T23:49:30.681Z,-7.46
2019-01-23T23:51:37.219Z,-7.44
2019-01-23T23:53:43.510Z,-7.44
2019-01-23T23:55:52.521Z,-7.45
2019-01-23T23:58:01.052Z,-7.47
